CST,Max TemperatureF,Mean TemperatureF,Min TemperatureF,Max Dew PointF,MeanDew PointF,Min DewpointF,Max Humidity, Mean Humidity, Min Humidity, Max Sea Level PressureIn, Mean Sea Level PressureIn, Min Sea Level PressureIn, Max VisibilityMiles, Mean VisibilityMiles, Min VisibilityMiles, Max Wind SpeedMPH, Mean Wind SpeedMPH, Max Gust SpeedMPH,PrecipitationIn, CloudCover, Events, WindDirDegrees
2011-2-1,25,21,16,23,17,12,96,90,84,30.11,29.94,29.71,8,2,0,33,19,46,0.82,8,Fog-Snow,354
2011-2-2,16,8,-1,12,5,-6,84,73,61,30.67,30.37,30.02,10,8,2,26,13,31,T,4,Snow,306
2011-2-3,18,4,-10,3,-5,-8,91,64,36,30.67,30.57,30.45,10,10,6,9,5,24,0.00,0,,251
2011-2-4,25,11,-3,13,3,-7,79,62,45,30.41,30.17,29.87,10,10,3,9,6,10,T,4,Snow,209
2011-2-5,36,27,18,28,20,14,100,78,56,29.87,29.75,29.69,10,5,1,40,8,79,0.16,6,Snow,213
2011-2-6,38,35,31,32,29,25,89,82,75,30.10,29.88,29.73,10,9,7,24,10,79,0.00,8,,273
2011-2-7,31,24,17,26,18,11,85,77,68,30.27,30.14,30.08,10,10,8,23,12,28,0.00,8,,324
2011-2-8,18,10,1,10,0,-7,84,72,60,30.57,30.45,30.24,10,10,10,17,9,23,0.00,3,,355
2011-2-9,18,11,4,5,1,-3,88,68,47,30.51,30.41,30.35,10,6,2,13,5,29,0.01,6,Snow,325
2011-2-10,27,9,-10,2,-3,-12,91,62,32,30.37,30.24,30.14,10,10,10,21,10,25,0.00,0,,226
2011-2-11,39,23,7,20,11,-3,69,56,43,30.20,30.13,30.08,10,10,10,18,10,23,0.00,1,,234
2011-2-12,46,32,18,28,23,17,91,69,46,30.28,30.19,30.07,10,10,7,23,11,29,0.00,0,,222
2011-2-13,52,41,30,28,25,21,72,56,39,30.06,29.95,29.82,10,10,10,21,12,51,0.00,0,,224
2011-2-14,48,41,33,31,29,27,75,64,53,30.31,30.22,30.03,10,10,10,20,9,24,0.00,0,,300
2011-2-15,53,44,34,36,32,28,82,64,46,30.26,30.11,30.00,10,10,10,23,13,29,0.00,2,,149
2011-2-16,68,55,41,55,46,36,92,78,63,30.00,29.91,29.80,10,10,10,14,8,17,0.00,4,,181
2011-2-17,74,64,54,56,52,40,83,66,49,29.92,29.72,29.61,10,10,10,33,17,41,0.00,2,,210
2011-2-18,60,50,40,40,31,27,71,50,28,30.30,30.20,29.96,10,10,10,15,7,18,0.00,1,,17
2011-2-19,48,44,39,36,31,26,85,67,49,30.34,30.23,30.06,10,10,10,22,13,30,0.03,6,Rain,105
2011-2-20,65,53,40,55,46,34,86,75,63,30.02,29.74,29.60,10,10,4,26,16,36,0.11,6,Rain,182
2011-2-21,56,42,27,54,36,18,100,82,63,30.08,29.77,29.62,10,7,2,23,12,25,0.69,6,Rain,309
2011-2-22,37,30,22,24,20,16,81,70,59,30.29,30.20,30.09,10,10,10,14,7,18,0.00,3,,8
2011-2-23,49,39,29,39,32,23,92,82,71,30.16,30.04,29.89,10,9,5,21,12,26,0.05,7,Rain,131
2011-2-24,41,36,31,37,32,30,100,93,85,30.03,29.89,29.73,9,3,0,29,15,35,0.86,8,Fog-Rain-Snow,26
2011-2-25,31,29,27,30,27,25,100,96,92,30.27,30.14,29.89,8,5,2,22,8,28,T,8,Rain-Snow,18
2011-2-26,37,32,27,37,32,26,100,96,92,30.14,29.92,29.81,4,2,0,12,5,14,0.02,8,Fog-Rain,73
2011-2-27,64,49,34,60,42,34,100,92,84,29.84,29.66,29.45,10,4,1,36,11,48,0.38,8,Rain-Thunderstorm,104
2011-2-28,42,34,25,28,24,19,78,62,45,30.32,30.06,29.63,10,10,6,24,11,31,0.01,3,,6